sensor_id;sensor_type;location;lat;lon;timestamp;P1;durP1;ratioP1;P2;durP2;ratioP2
64487;SDS011;50864;45.050;39.014;2023-08-06T00:01:34;9.15;;;5.15;;
64487;SDS011;50864;45.050;39.014;2023-08-06T00:04:00;10.65;;;4.78;;
64487;SDS011;50864;45.050;39.014;2023-08-06T00:06:26;9.82;;;4.45;;
64487;SDS011;50864;45.050;39.014;2023-08-06T00:08:52;13.48;;;5.00;;
64487;SDS011;50864;45.050;39.014;2023-08-06T00:11:18;8.15;;;4.93;;
64487;SDS011;50864;45.050;39.014;2023-08-06T00:13:43;9.80;;;4.62;;
64487;SDS011;50864;45.050;39.014;2023-08-06T00:16:12;12.35;;;5.55;;
64487;SDS011;50864;45.050;39.014;2023-08-06T00:18:38;9.65;;;4.57;;
64487;SDS011;50864;45.050;39.014;2023-08-06T00:21:04;10.77;;;4.85;;
64487;SDS011;50864;45.050;39.014;2023-08-06T00:23:30;11.85;;;4.53;;
64487;SDS011;50864;45.050;39.014;2023-08-06T00:25:56;9.68;;;4.80;;
64487;SDS011;50864;45.050;39.014;2023-08-06T00:28:22;9.35;;;4.70;;
64487;SDS011;50864;45.050;39.014;2023-08-06T00:30:54;9.35;;;4.28;;
64487;SDS011;50864;45.050;39.014;2023-08-06T00:33:21;7.90;;;3.87;;
64487;SDS011;50864;45.050;39.014;2023-08-06T00:35:46;9.00;;;4.22;;
64487;SDS011;50864;45.050;39.014;2023-08-06T00:38:13;8.65;;;3.78;;
64487;SDS011;50864;45.050;39.014;2023-08-06T00:40:39;10.70;;;4.45;;
64487;SDS011;50864;45.050;39.014;2023-08-06T00:43:04;8.85;;;4.30;;
64487;SDS011;50864;45.050;39.014;2023-08-06T00:45:30;9.57;;;4.10;;
64487;SDS011;50864;45.050;39.014;2023-08-06T00:47:59;10.40;;;4.15;;
64487;SDS011;50864;45.050;39.014;2023-08-06T00:50:25;9.93;;;4.47;;
64487;SDS011;50864;45.050;39.014;2023-08-06T00:52:51;9.68;;;4.25;;
64487;SDS011;50864;45.050;39.014;2023-08-06T00:55:17;6.82;;;3.95;;
64487;SDS011;50864;45.050;39.014;2023-08-06T00:57:44;10.35;;;4.55;;
64487;SDS011;50864;45.050;39.014;2023-08-06T01:00:10;8.38;;;4.78;;
64487;SDS011;50864;45.050;39.014;2023-08-06T01:02:36;7.78;;;3.87;;
64487;SDS011;50864;45.050;39.014;2023-08-06T01:05:02;7.40;;;4.07;;
64487;SDS011;50864;45.050;39.014;2023-08-06T01:15:07;11.50;;;4.57;;
64487;SDS011;50864;45.050;39.014;2023-08-06T01:17:35;9.65;;;4.55;;
64487;SDS011;50864;45.050;39.014;2023-08-06T01:20:01;9.95;;;4.43;;
64487;SDS011;50864;45.050;39.014;2023-08-06T01:22:26;9.52;;;4.37;;
64487;SDS011;50864;45.050;39.014;2023-08-06T01:24:52;8.32;;;4.05;;
64487;SDS011;50864;45.050;39.014;2023-08-06T01:27:23;8.82;;;5.18;;
64487;SDS011;50864;45.050;39.014;2023-08-06T01:29:56;7.35;;;4.18;;
64487;SDS011;50864;45.050;39.014;2023-08-06T01:32:25;6.50;;;4.10;;
64487;SDS011;50864;45.050;39.014;2023-08-06T01:34:51;7.62;;;4.00;;
64487;SDS011;50864;45.050;39.014;2023-08-06T01:37:18;7.55;;;4.37;;
64487;SDS011;50864;45.050;39.014;2023-08-06T01:39:44;7.30;;;4.43;;
64487;SDS011;50864;45.050;39.014;2023-08-06T01:42:10;10.85;;;4.37;;
64487;SDS011;50864;45.050;39.014;2023-08-06T01:44:36;9.40;;;3.97;;
64487;SDS011;50864;45.050;39.014;2023-08-06T01:47:02;10.43;;;4.55;;
64487;SDS011;50864;45.050;39.014;2023-08-06T01:49:27;6.87;;;3.53;;
64487;SDS011;50864;45.050;39.014;2023-08-06T01:51:53;8.98;;;4.35;;
64487;SDS011;50864;45.050;39.014;2023-08-06T01:54:19;7.37;;;4.30;;
64487;SDS011;50864;45.050;39.014;2023-08-06T01:56:45;10.35;;;4.22;;
64487;SDS011;50864;45.050;39.014;2023-08-06T01:59:10;8.35;;;4.18;;
64487;SDS011;50864;45.050;39.014;2023-08-06T02:01:36;9.88;;;3.78;;
64487;SDS011;50864;45.050;39.014;2023-08-06T02:04:02;9.32;;;4.70;;
64487;SDS011;50864;45.050;39.014;2023-08-06T02:06:28;6.75;;;4.00;;
64487;SDS011;50864;45.050;39.014;2023-08-06T02:08:54;6.75;;;4.07;;
64487;SDS011;50864;45.050;39.014;2023-08-06T02:11:20;10.43;;;4.30;;
64487;SDS011;50864;45.050;39.014;2023-08-06T02:13:46;11.02;;;4.93;;
64487;SDS011;50864;45.050;39.014;2023-08-06T02:16:16;10.80;;;4.40;;
64487;SDS011;50864;45.050;39.014;2023-08-06T02:18:41;9.57;;;4.53;;
64487;SDS011;50864;45.050;39.014;2023-08-06T02:21:07;24.85;;;5.18;;
64487;SDS011;50864;45.050;39.014;2023-08-06T02:23:33;9.30;;;4.68;;
64487;SDS011;50864;45.050;39.014;2023-08-06T02:28:25;10.25;;;4.62;;
64487;SDS011;50864;45.050;39.014;2023-08-06T02:30:51;9.68;;;4.05;;
64487;SDS011;50864;45.050;39.014;2023-08-06T02:33:17;8.40;;;4.30;;
64487;SDS011;50864;45.050;39.014;2023-08-06T02:35:43;8.20;;;4.18;;
64487;SDS011;50864;45.050;39.014;2023-08-06T02:38:09;9.30;;;4.55;;
64487;SDS011;50864;45.050;39.014;2023-08-06T02:40:34;7.37;;;4.28;;
64487;SDS011;50864;45.050;39.014;2023-08-06T02:43:00;8.20;;;4.18;;
64487;SDS011;50864;45.050;39.014;2023-08-06T02:45:26;9.65;;;4.55;;
64487;SDS011;50864;45.050;39.014;2023-08-06T02:47:52;8.93;;;4.55;;
64487;SDS011;50864;45.050;39.014;2023-08-06T02:50:17;9.68;;;4.80;;
64487;SDS011;50864;45.050;39.014;2023-08-06T02:52:43;10.10;;;4.18;;
64487;SDS011;50864;45.050;39.014;2023-08-06T02:55:09;10.25;;;4.20;;
64487;SDS011;50864;45.050;39.014;2023-08-06T02:57:37;8.70;;;4.15;;
64487;SDS011;50864;45.050;39.014;2023-08-06T03:00:03;9.25;;;4.57;;
64487;SDS011;50864;45.050;39.014;2023-08-06T03:02:29;8.63;;;4.47;;
64487;SDS011;50864;45.050;39.014;2023-08-06T03:04:56;8.13;;;5.15;;
64487;SDS011;50864;45.050;39.014;2023-08-06T03:07:23;7.32;;;3.30;;
64487;SDS011;50864;45.050;39.014;2023-08-06T03:09:50;11.88;;;4.85;;
64487;SDS011;50864;45.050;39.014;2023-08-06T03:12:16;8.30;;;4.43;;
64487;SDS011;50864;45.050;39.014;2023-08-06T03:14:42;11.88;;;4.68;;
64487;SDS011;50864;45.050;39.014;2023-08-06T03:17:08;10.52;;;4.70;;
64487;SDS011;50864;45.050;39.014;2023-08-06T03:19:34;8.00;;;4.32;;
64487;SDS011;50864;45.050;39.014;2023-08-06T03:22:01;9.65;;;4.55;;
64487;SDS011;50864;45.050;39.014;2023-08-06T03:24:26;9.15;;;4.82;;
64487;SDS011;50864;45.050;39.014;2023-08-06T03:26:52;9.45;;;3.95;;
64487;SDS011;50864;45.050;39.014;2023-08-06T03:29:18;9.02;;;4.12;;
64487;SDS011;50864;45.050;39.014;2023-08-06T03:31:44;11.07;;;4.90;;
64487;SDS011;50864;45.050;39.014;2023-08-06T03:34:12;8.50;;;4.32;;
64487;SDS011;50864;45.050;39.014;2023-08-06T03:36:39;10.10;;;4.43;;
64487;SDS011;50864;45.050;39.014;2023-08-06T03:39:05;8.27;;;3.92;;
64487;SDS011;50864;45.050;39.014;2023-08-06T03:41:31;7.95;;;4.32;;
64487;SDS011;50864;45.050;39.014;2023-08-06T03:43:57;11.02;;;4.57;;
64487;SDS011;50864;45.050;39.014;2023-08-06T03:46:23;10.38;;;4.75;;
64487;SDS011;50864;45.050;39.014;2023-08-06T03:48:50;7.10;;;4.18;;
64487;SDS011;50864;45.050;39.014;2023-08-06T03:51:16;10.02;;;5.15;;
64487;SDS011;50864;45.050;39.014;2023-08-06T03:53:42;9.68;;;4.50;;
64487;SDS011;50864;45.050;39.014;2023-08-06T03:56:09;9.88;;;4.15;;
64487;SDS011;50864;45.050;39.014;2023-08-06T03:58:36;10.05;;;4.40;;
64487;SDS011;50864;45.050;39.014;2023-08-06T04:01:04;8.15;;;4.70;;
64487;SDS011;50864;45.050;39.014;2023-08-06T04:03:32;6.22;;;3.83;;
64487;SDS011;50864;45.050;39.014;2023-08-06T04:05:58;8.57;;;4.18;;
64487;SDS011;50864;45.050;39.014;2023-08-06T04:08:24;10.00;;;4.45;;
64487;SDS011;50864;45.050;39.014;2023-08-06T04:10:52;11.27;;;4.40;;
64487;SDS011;50864;45.050;39.014;2023-08-06T04:13:18;11.60;;;5.25;;
64487;SDS011;50864;45.050;39.014;2023-08-06T04:15:44;14.93;;;4.60;;
64487;SDS011;50864;45.050;39.014;2023-08-06T04:18:10;10.70;;;4.60;;
64487;SDS011;50864;45.050;39.014;2023-08-06T04:20:45;12.63;;;4.57;;
64487;SDS011;50864;45.050;39.014;2023-08-06T04:23:11;8.95;;;4.32;;
64487;SDS011;50864;45.050;39.014;2023-08-06T04:25:38;7.65;;;3.85;;
64487;SDS011;50864;45.050;39.014;2023-08-06T04:28:04;11.38;;;4.50;;
64487;SDS011;50864;45.050;39.014;2023-08-06T04:30:31;9.85;;;5.20;;
64487;SDS011;50864;45.050;39.014;2023-08-06T04:32:57;9.95;;;4.57;;
64487;SDS011;50864;45.050;39.014;2023-08-06T04:35:26;12.88;;;4.93;;
64487;SDS011;50864;45.050;39.014;2023-08-06T04:37:52;9.48;;;4.78;;
64487;SDS011;50864;45.050;39.014;2023-08-06T04:40:18;9.43;;;4.32;;
64487;SDS011;50864;45.050;39.014;2023-08-06T04:42:44;8.38;;;4.28;;
64487;SDS011;50864;45.050;39.014;2023-08-06T04:45:10;10.45;;;4.78;;
64487;SDS011;50864;45.050;39.014;2023-08-06T04:47:36;13.27;;;5.10;;
64487;SDS011;50864;45.050;39.014;2023-08-06T04:50:01;12.32;;;6.20;;
64487;SDS011;50864;45.050;39.014;2023-08-06T04:52:27;10.75;;;5.22;;
64487;SDS011;50864;45.050;39.014;2023-08-06T04:54:54;13.95;;;4.78;;
64487;SDS011;50864;45.050;39.014;2023-08-06T04:57:19;13.68;;;4.20;;
64487;SDS011;50864;45.050;39.014;2023-08-06T04:59:46;11.43;;;5.15;;
64487;SDS011;50864;45.050;39.014;2023-08-06T05:02:11;9.45;;;4.93;;
64487;SDS011;50864;45.050;39.014;2023-08-06T05:04:37;10.13;;;4.50;;
64487;SDS011;50864;45.050;39.014;2023-08-06T05:07:03;10.55;;;4.35;;
64487;SDS011;50864;45.050;39.014;2023-08-06T05:09:29;12.52;;;4.78;;
64487;SDS011;50864;45.050;39.014;2023-08-06T05:11:55;10.98;;;4.40;;
64487;SDS011;50864;45.050;39.014;2023-08-06T05:14:20;11.45;;;4.40;;
64487;SDS011;50864;45.050;39.014;2023-08-06T05:16:46;11.98;;;4.68;;
64487;SDS011;50864;45.050;39.014;2023-08-06T05:19:12;11.95;;;4.45;;
64487;SDS011;50864;45.050;39.014;2023-08-06T05:21:38;6.97;;;4.18;;
64487;SDS011;50864;45.050;39.014;2023-08-06T05:24:03;11.05;;;5.10;;
64487;SDS011;50864;45.050;39.014;2023-08-06T05:26:29;15.20;;;4.28;;
64487;SDS011;50864;45.050;39.014;2023-08-06T05:28:55;8.80;;;4.25;;
64487;SDS011;50864;45.050;39.014;2023-08-06T05:31:21;9.38;;;4.12;;
64487;SDS011;50864;45.050;39.014;2023-08-06T05:33:46;9.60;;;3.80;;
64487;SDS011;50864;45.050;39.014;2023-08-06T05:36:12;8.48;;;4.00;;
64487;SDS011;50864;45.050;39.014;2023-08-06T05:38:38;14.75;;;4.32;;
64487;SDS011;50864;45.050;39.014;2023-08-06T05:41:04;7.43;;;3.83;;
64487;SDS011;50864;45.050;39.014;2023-08-06T05:43:30;8.70;;;4.03;;
64487;SDS011;50864;45.050;39.014;2023-08-06T05:45:56;8.25;;;3.75;;
64487;SDS011;50864;45.050;39.014;2023-08-06T05:48:21;8.10;;;3.35;;
64487;SDS011;50864;45.050;39.014;2023-08-06T05:50:51;9.82;;;3.60;;
64487;SDS011;50864;45.050;39.014;2023-08-06T05:53:17;10.02;;;4.57;;
64487;SDS011;50864;45.050;39.014;2023-08-06T05:55:42;16.55;;;4.43;;
64487;SDS011;50864;45.050;39.014;2023-08-06T05:58:08;10.02;;;3.70;;
64487;SDS011;50864;45.050;39.014;2023-08-06T06:00:34;9.75;;;4.22;;
64487;SDS011;50864;45.050;39.014;2023-08-06T06:03:01;10.15;;;3.85;;
64487;SDS011;50864;45.050;39.014;2023-08-06T06:05:28;12.98;;;4.28;;
64487;SDS011;50864;45.050;39.014;2023-08-06T06:07:53;7.50;;;3.58;;
64487;SDS011;50864;45.050;39.014;2023-08-06T06:10:19;11.85;;;3.85;;
64487;SDS011;50864;45.050;39.014;2023-08-06T06:12:45;16.50;;;3.25;;
64487;SDS011;50864;45.050;39.014;2023-08-06T06:15:11;14.05;;;3.95;;
64487;SDS011;50864;45.050;39.014;2023-08-06T06:17:37;13.62;;;3.87;;
64487;SDS011;50864;45.050;39.014;2023-08-06T06:20:02;8.38;;;3.62;;
64487;SDS011;50864;45.050;39.014;2023-08-06T06:22:29;7.57;;;3.50;;
64487;SDS011;50864;45.050;39.014;2023-08-06T06:24:55;9.40;;;2.87;;
64487;SDS011;50864;45.050;39.014;2023-08-06T06:27:21;12.95;;;3.80;;
64487;SDS011;50864;45.050;39.014;2023-08-06T06:29:47;10.77;;;3.30;;
64487;SDS011;50864;45.050;39.014;2023-08-06T06:32:13;7.85;;;3.20;;
64487;SDS011;50864;45.050;39.014;2023-08-06T06:34:38;8.75;;;2.75;;
64487;SDS011;50864;45.050;39.014;2023-08-06T06:37:04;9.38;;;3.30;;
64487;SDS011;50864;45.050;39.014;2023-08-06T06:39:30;7.62;;;3.05;;
64487;SDS011;50864;45.050;39.014;2023-08-06T06:41:56;11.32;;;3.70;;
64487;SDS011;50864;45.050;39.014;2023-08-06T06:44:22;7.78;;;3.30;;
64487;SDS011;50864;45.050;39.014;2023-08-06T06:46:48;9.77;;;3.42;;
64487;SDS011;50864;45.050;39.014;2023-08-06T06:49:13;18.02;;;3.67;;
64487;SDS011;50864;45.050;39.014;2023-08-06T06:51:39;4.35;;;2.35;;
64487;SDS011;50864;45.050;39.014;2023-08-06T06:54:05;10.90;;;3.33;;
64487;SDS011;50864;45.050;39.014;2023-08-06T06:56:31;10.98;;;3.30;;
64487;SDS011;50864;45.050;39.014;2023-08-06T06:58:56;7.45;;;2.67;;
64487;SDS011;50864;45.050;39.014;2023-08-06T07:01:22;8.13;;;3.05;;
64487;SDS011;50864;45.050;39.014;2023-08-06T07:03:48;11.45;;;3.20;;
64487;SDS011;50864;45.050;39.014;2023-08-06T07:06:14;9.10;;;3.20;;
64487;SDS011;50864;45.050;39.014;2023-08-06T07:08:41;10.88;;;3.08;;
64487;SDS011;50864;45.050;39.014;2023-08-06T07:11:07;7.68;;;2.70;;
64487;SDS011;50864;45.050;39.014;2023-08-06T07:13:33;10.50;;;3.20;;
64487;SDS011;50864;45.050;39.014;2023-08-06T07:15:59;9.05;;;2.78;;
64487;SDS011;50864;45.050;39.014;2023-08-06T07:18:25;10.73;;;3.30;;
64487;SDS011;50864;45.050;39.014;2023-08-06T07:20:51;7.70;;;2.58;;
64487;SDS011;50864;45.050;39.014;2023-08-06T07:23:18;10.05;;;2.85;;
64487;SDS011;50864;45.050;39.014;2023-08-06T07:25:44;9.05;;;3.05;;
64487;SDS011;50864;45.050;39.014;2023-08-06T07:28:09;10.10;;;3.20;;
64487;SDS011;50864;45.050;39.014;2023-08-06T07:30:39;13.32;;;3.40;;
64487;SDS011;50864;45.050;39.014;2023-08-06T07:33:04;7.55;;;2.70;;
64487;SDS011;50864;45.050;39.014;2023-08-06T07:35:30;12.07;;;3.55;;
64487;SDS011;50864;45.050;39.014;2023-08-06T07:37:56;10.75;;;3.28;;
64487;SDS011;50864;45.050;39.014;2023-08-06T07:40:22;15.95;;;3.80;;
64487;SDS011;50864;45.050;39.014;2023-08-06T07:42:47;9.30;;;3.42;;
64487;SDS011;50864;45.050;39.014;2023-08-06T07:45:13;10.00;;;3.90;;
64487;SDS011;50864;45.050;39.014;2023-08-06T07:47:39;11.98;;;3.97;;
64487;SDS011;50864;45.050;39.014;2023-08-06T07:50:05;10.93;;;4.55;;
64487;SDS011;50864;45.050;39.014;2023-08-06T07:52:31;14.38;;;3.78;;
64487;SDS011;50864;45.050;39.014;2023-08-06T07:54:57;11.70;;;3.42;;
64487;SDS011;50864;45.050;39.014;2023-08-06T07:57:23;10.63;;;3.78;;
64487;SDS011;50864;45.050;39.014;2023-08-06T07:59:49;9.77;;;3.92;;
64487;SDS011;50864;45.050;39.014;2023-08-06T08:02:14;8.07;;;3.95;;
64487;SDS011;50864;45.050;39.014;2023-08-06T08:04:40;14.55;;;4.20;;
64487;SDS011;50864;45.050;39.014;2023-08-06T08:07:06;13.65;;;3.42;;
64487;SDS011;50864;45.050;39.014;2023-08-06T08:09:32;8.18;;;3.62;;
64487;SDS011;50864;45.050;39.014;2023-08-06T08:11:59;11.15;;;4.00;;
64487;SDS011;50864;45.050;39.014;2023-08-06T08:14:26;9.02;;;3.25;;
64487;SDS011;50864;45.050;39.014;2023-08-06T08:16:53;7.95;;;3.42;;
64487;SDS011;50864;45.050;39.014;2023-08-06T08:19:21;9.80;;;3.78;;
64487;SDS011;50864;45.050;39.014;2023-08-06T08:21:47;11.52;;;3.70;;
64487;SDS011;50864;45.050;39.014;2023-08-06T08:24:13;13.93;;;4.40;;
64487;SDS011;50864;45.050;39.014;2023-08-06T08:26:41;13.02;;;4.05;;
64487;SDS011;50864;45.050;39.014;2023-08-06T08:29:07;10.32;;;3.80;;
64487;SDS011;50864;45.050;39.014;2023-08-06T08:31:33;9.15;;;3.45;;
64487;SDS011;50864;45.050;39.014;2023-08-06T08:34:05;12.70;;;3.47;;
64487;SDS011;50864;45.050;39.014;2023-08-06T08:36:31;12.02;;;3.37;;
64487;SDS011;50864;45.050;39.014;2023-08-06T08:38:57;14.05;;;2.65;;
64487;SDS011;50864;45.050;39.014;2023-08-06T08:41:23;9.25;;;3.17;;
